GW2231 Weather Reports


Display with metric or nautical units.
time (UTC)temp
F
wind
direction
speed
MPH
gust
MPH
rain 1hr
in
rain 24hr
in
rain mn
in
humidity
%
barometer
mb
20260504213504 71 140 1.0 4.0 0.00 0.39 0.39 78 1001.6
20260504205503 64 130 1.0 4.0 0.01 0.39 0.39 95 1002.0
20260504203004 61 123 0.0 0.0 0.39 0.39 0.39 91 1002.9
20260504202501 61 194 0.0 4.0 0.39 0.39 0.39 90 1002.8
20260504201504 61 88 1.0 8.0 0.39 0.39 0.39 89 1002.8
20260504201002 61 196 2.0 6.0 0.39 0.39 0.39 90 1002.7
20260504200504 61 274 1.0 8.0 0.39 0.39 0.39 90 1003.1
20260504200006 61 51 0.0 9.0 0.39 0.39 0.39 89 1003.2
20260504194504 63 123 2.0 7.0 0.23 0.23 0.23 86 1002.0
20260504194006 64 101 1.0 4.0 0.09 0.09 0.09 83 1004.0
20260504193004 65 12 1.0 3.0 0.00 0.00 0.00 76 1004.4
20260504192004 66 15 1.0 2.0 0.00 0.00 0.00 73 1004.0
20260504191504 66 33 0.0 3.0 0.00 0.00 0.00 71 1004.0
20260504191000 67 29 1.0 3.0 0.00 0.00 0.00 71 1004.1
20260504190504 66 360 2.0 4.0 0.00 0.00 0.00 70 1004.1
20260504190004 66 5 2.0 4.0 0.00 0.00 0.00 72 1004.0
20260504185504 66 5 2.0 3.0 0.00 0.00 0.00 73 1004.1
20260504184500 67 13 0.0 0.0 0.00 0.00 0.00 73 1003.8
20260504184002 67 72 0.0 0.0 0.00 0.00 0.00 72 1003.8
20260504182002 68 72 0.0 0.0 0.00 0.00 0.00 69 1004.0
20260504181504 68 72 0.0 0.0 0.00 0.00 0.00 69 1003.9
20260504175504 68 162 0.0 2.0 0.00 0.00 0.00 68 1003.9
20260504172504 67 122 1.0 4.0 0.00 0.00 0.00 68 1004.0
20260504170504 67 184 0.0 3.0 0.00 0.00 0.00 70 1004.7
20260504080959 60 82 0.0 0.0 0.00 0.00 0.00 74 1006.6
20260504045959 61 181 0.0 2.0 0.00 0.00 0.00 66 1006.2
20260504045500 61 167 0.0 2.0 0.00 0.00 0.00 66 1006.2
20260504045000 61 175 0.0 2.0 0.00 0.00 0.00 66 1006.4
20260504044503 61 168 0.0 2.0 0.00 0.00 0.00 65 1006.6
20260504042459 62 210 0.0 4.0 0.00 0.00 0.00 66 1007.1
20260504041959 62 238 0.0 5.0 0.00 0.00 0.00 65 1007.3
20260504041500 62 197 1.0 3.0 0.00 0.00 0.00 64 1007.5
20260504041000 62 194 1.0 3.0 0.00 0.00 0.00 65 1007.5
20260504033958 61 180 0.0 2.0 0.00 0.00 0.00 64 1007.6
20260504031001 63 232 0.0 1.0 0.00 0.00 0.00 61 1007.6
20260504030002 63 196 0.0 5.0 0.00 0.00 0.00 61 1007.7
20260504025502 63 217 0.0 5.0 0.00 0.00 0.00 60 1007.7
20260504024000 64 149 1.0 5.0 0.00 0.00 0.00 59 1007.7
20260504023500 64 327 1.0 5.0 0.00 0.00 0.00 59 1007.7
20260504022504 65 223 1.0 3.0 0.00 0.00 0.00 57 1007.7
20260504021500 65 182 1.0 2.0 0.00 0.00 0.00 56 1007.6
20260504021000 65 278 0.0 3.0 0.00 0.00 0.00 56 1007.6
20260504020503 65 205 1.0 3.0 0.00 0.00 0.00 56 1007.5
20260504014958 66 165 1.0 2.0 0.00 0.00 0.00 55 1007.3
20260504014000 66 147 0.0 4.0 0.00 0.00 0.00 55 1007.3
20260504012959 67 224 0.0 2.0 0.00 0.00 0.00 54 1007.2
20260504012500 67 170 1.0 2.0 0.00 0.00 0.00 53 1007.2
20260504012000 67 269 0.0 1.0 0.00 0.00 0.00 53 1007.2
20260504011458 68 180 0.0 3.0 0.00 0.00 0.00 53 1007.2
20260504010502 68 175 1.0 2.0 0.00 0.00 0.00 51 1007.1
20260504004459 70 182 0.0 2.0 0.00 0.00 0.00 49 1007.2
20260504003959 70 188 0.0 1.0 0.00 0.00 0.00 49 1007.2
20260504003459 71 179 0.0 2.0 0.00 0.00 0.00 49 1007.2
20260504003000 71 188 0.0 3.0 0.00 0.00 0.00 48 1007.1
20260504002459 71 302 0.0 3.0 0.00 0.00 0.00 48 1007.2
20260504001959 72 207 0.0 3.0 0.00 0.00 0.00 47 1007.2
20260503235458 74 242 1.0 3.0 0.00 0.00 0.00 43 1007.4
20260503234500 74 277 1.0 7.0 0.00 0.00 0.00 42 1007.4
20260503234000 75 218 2.0 7.0 0.00 0.00 0.00 41 1007.4
20260503232459 76 236 2.0 8.0 0.00 0.00 0.00 40 1007.3
20260503230459 76 190 2.0 9.0 0.00 0.00 0.00 38 1007.7
20260503225500 76 309 2.0 10.0 0.00 0.00 0.00 39 1007.7
20260503223959 76 210 3.0 12.0 0.00 0.00 0.00 39 1007.8
20260503223000 76 181 1.0 15.0 0.00 0.00 0.00 39 1007.8
20260503222500 76 71 5.0 15.0 0.00 0.00 0.00 38 1007.9
20260503220002 76 110 3.0 12.0 0.00 0.00 0.00 38 1008.0
20260503215001 76 360 2.0 12.0 0.00 0.00 0.00 40 1008.1
20260503214502 76 225 3.0 10.0 0.00 0.00 0.00 41 1008.1